NOZ1972 EGPH-ENGM
Flight info
| Callsign | NOZ1972 |
|---|---|
| Flight time | N/A |
| Altitude | 35000 |
| Route | GRICE P600 ASNUD DCT ADN DCT RIGVU DCT ADOPI |
| Aircraft | B738/M-SDE2E3FGHIRWXY/LB1 |
Departure
| Time | 2026-05-04 07:49 |
|---|---|
| Airport | Edinburgh Airport (EGPH) |
Arrival
| Time | N/A |
|---|---|
| Airport | Oslo-Gardermoen International Airport (ENGM) |
| Time | Latitude | Longitude | Altitude | Speed | Heading |
|---|---|---|---|---|---|
| 2026-05-04 07:35 | 55.94953 | -3.36024 | 107 ft | 0 kts | 254° |
| 2026-05-04 07:42 | 55.94954 | -3.36017 | 106 ft | 3 kts | 254° |
| 2026-05-04 07:43 | 55.94962 | -3.35971 | 106 ft | 4 kts | 254° |
| 2026-05-04 07:43 | 55.94968 | -3.35926 | 107 ft | 4 kts | 265° |
| 2026-05-04 07:43 | 55.94965 | -3.35883 | 107 ft | 4 kts | 308° |
| 2026-05-04 07:43 | 55.94950 | -3.35867 | 106 ft | 1 kts | 6° |
| 2026-05-04 07:44 | 55.94949 | -3.35867 | 106 ft | 1 kts | 6° |
| 2026-05-04 07:45 | 55.94952 | -3.35867 | 106 ft | 3 kts | 6° |
| 2026-05-04 07:46 | 55.94996 | -3.35850 | 107 ft | 10 kts | 26° |
| 2026-05-04 07:46 | 55.95081 | -3.35790 | 108 ft | 12 kts | 354° |
| 2026-05-04 07:46 | 55.95127 | -3.35886 | 108 ft | 10 kts | 298° |
| 2026-05-04 07:46 | 55.95183 | -3.35966 | 106 ft | 11 kts | 330° |
| 2026-05-04 07:47 | 55.95249 | -3.35937 | 105 ft | 11 kts | 50° |
| 2026-05-04 07:47 | 55.95291 | -3.35817 | 106 ft | 12 kts | 59° |
| 2026-05-04 07:47 | 55.95346 | -3.35654 | 107 ft | 18 kts | 59° |
| 2026-05-04 07:49 | 55.94078 | -3.39816 | 1739 ft | 153 kts | 238° |
| 2026-05-04 07:49 | 55.93497 | -3.41428 | 2798 ft | 152 kts | 240° |
| 2026-05-04 07:49 | 55.92916 | -3.43169 | 3371 ft | 184 kts | 240° |
| 2026-05-04 07:50 | 55.92210 | -3.45267 | 3672 ft | 212 kts | 240° |
| 2026-05-04 07:50 | 55.91411 | -3.47615 | 4031 ft | 227 kts | 240° |
| 2026-05-04 07:50 | 55.90547 | -3.50138 | 4373 ft | 249 kts | 241° |
| 2026-05-04 07:50 | 55.90005 | -3.53069 | 5114 ft | 252 kts | 268° |
| 2026-05-04 07:51 | 55.90273 | -3.56148 | 5700 ft | 254 kts | 293° |
| 2026-05-04 07:51 | 55.91315 | -3.58703 | 5989 ft | 260 kts | 319° |
| 2026-05-04 07:51 | 55.92941 | -3.60112 | 6004 ft | 264 kts | 347° |
| 2026-05-04 07:51 | 55.94762 | -3.59920 | 6005 ft | 271 kts | 16° |
| 2026-05-04 07:52 | 55.96442 | -3.58335 | 6016 ft | 276 kts | 31° |
| 2026-05-04 07:52 | 55.98049 | -3.56410 | 6014 ft | 278 kts | 31° |
| 2026-05-04 07:52 | 55.99646 | -3.54451 | 6001 ft | 279 kts | 32° |
| 2026-05-04 07:52 | 56.01249 | -3.52470 | 5999 ft | 279 kts | 32° |
| 2026-05-04 07:53 | 56.02908 | -3.50716 | 5976 ft | 275 kts | 13° |
| 2026-05-04 07:54 | 56.11475 | -3.64875 | 5985 ft | 264 kts | 336° |
| 2026-05-04 07:55 | 56.13220 | -3.65797 | 6004 ft | 265 kts | 344° |
| 2026-05-04 07:55 | 56.15026 | -3.66535 | 5996 ft | 266 kts | 344° |
| 2026-05-04 07:55 | 56.16831 | -3.67285 | 6003 ft | 266 kts | 343° |
| 2026-05-04 07:55 | 56.18648 | -3.67950 | 5980 ft | 269 kts | 355° |
| 2026-05-04 07:56 | 56.20488 | -3.67352 | 6048 ft | 274 kts | 21° |
| 2026-05-04 07:56 | 56.22124 | -3.65521 | 6605 ft | 281 kts | 33° |
| 2026-05-04 07:56 | 56.23713 | -3.63450 | 7470 ft | 282 kts | 33° |
| 2026-05-04 07:56 | 56.25301 | -3.61347 | 8321 ft | 284 kts | 33° |
| 2026-05-04 07:57 | 56.26905 | -3.59240 | 9122 ft | 287 kts | 33° |
| 2026-05-04 07:57 | 56.28534 | -3.57114 | 9922 ft | 290 kts | 33° |
| 2026-05-04 07:57 | 56.30191 | -3.54963 | 10485 ft | 302 kts | 32° |
| 2026-05-04 07:57 | 56.31961 | -3.52710 | 10667 ft | 327 kts | 32° |
| 2026-05-04 07:58 | 56.33891 | -3.50258 | 10864 ft | 349 kts | 32° |
| 2026-05-04 07:58 | 56.35913 | -3.47678 | 11337 ft | 361 kts | 32° |
| 2026-05-04 07:58 | 56.37970 | -3.45034 | 12013 ft | 366 kts | 33° |
| 2026-05-04 07:58 | 56.40043 | -3.42334 | 12782 ft | 368 kts | 33° |
| 2026-05-04 07:59 | 56.42134 | -3.39605 | 13513 ft | 372 kts | 32° |
| 2026-05-04 07:59 | 56.44248 | -3.36847 | 14178 ft | 376 kts | 32° |
| 2026-05-04 07:59 | 56.46397 | -3.34127 | 14826 ft | 379 kts | 31° |
| 2026-05-04 07:59 | 56.48579 | -3.31438 | 15485 ft | 381 kts | 31° |
| 2026-05-04 08:00 | 56.50042 | -3.29645 | 15918 ft | 383 kts | 31° |
| 2026-05-04 08:00 | 56.52981 | -3.26038 | 16761 ft | 388 kts | 31° |
| 2026-05-04 08:00 | 56.55224 | -3.23271 | 17375 ft | 391 kts | 31° |
| 2026-05-04 08:02 | 56.70507 | -3.04219 | 21110 ft | 408 kts | 31° |
| 2026-05-04 08:02 | 56.72856 | -3.01270 | 21619 ft | 411 kts | 31° |
| 2026-05-04 08:02 | 56.75215 | -2.98302 | 22146 ft | 413 kts | 31° |
| 2026-05-04 08:03 | 56.77590 | -2.95308 | 22628 ft | 416 kts | 31° |
| 2026-05-04 08:03 | 56.79975 | -2.92297 | 23091 ft | 418 kts | 31° |
| 2026-05-04 08:03 | 56.82376 | -2.89260 | 23583 ft | 421 kts | 31° |
| 2026-05-04 08:03 | 56.84792 | -2.86201 | 23971 ft | 423 kts | 31° |
| 2026-05-04 08:04 | 56.87221 | -2.83118 | 24378 ft | 425 kts | 31° |
| 2026-05-04 08:04 | 56.89646 | -2.80035 | 24799 ft | 426 kts | 31° |
| 2026-05-04 08:04 | 56.92059 | -2.76964 | 25176 ft | 428 kts | 30° |
| 2026-05-04 08:04 | 56.94509 | -2.73842 | 25542 ft | 430 kts | 30° |
| 2026-05-04 08:05 | 56.96971 | -2.70697 | 25928 ft | 432 kts | 30° |
| 2026-05-04 08:05 | 56.99438 | -2.67543 | 26277 ft | 434 kts | 30° |
| 2026-05-04 08:05 | 57.01927 | -2.64354 | 26639 ft | 436 kts | 30° |
| 2026-05-04 08:05 | 57.04417 | -2.61159 | 26989 ft | 438 kts | 30° |
| 2026-05-04 08:06 | 57.06920 | -2.57940 | 27325 ft | 440 kts | 30° |
| 2026-05-04 08:06 | 57.09431 | -2.54707 | 27662 ft | 442 kts | 30° |
| 2026-05-04 08:06 | 57.11957 | -2.51449 | 27950 ft | 444 kts | 30° |
| 2026-05-04 08:06 | 57.14499 | -2.48165 | 28284 ft | 446 kts | 30° |
| 2026-05-04 08:08 | 57.32010 | -2.23972 | 30704 ft | 458 kts | 44° |
| 2026-05-04 08:08 | 57.33924 | -2.19199 | 30967 ft | 464 kts | 50° |
| 2026-05-04 08:10 | 57.48154 | -1.79536 | 33416 ft | 460 kts | 51° |
| 2026-05-04 08:11 | 57.49935 | -1.74591 | 33689 ft | 460 kts | 51° |
| 2026-05-04 08:11 | 57.53498 | -1.64671 | 34196 ft | 460 kts | 51° |
| 2026-05-04 08:11 | 57.55271 | -1.59717 | 34361 ft | 461 kts | 51° |
| 2026-05-04 08:12 | 57.57053 | -1.54729 | 34531 ft | 462 kts | 51° |
| 2026-05-04 08:12 | 57.58814 | -1.49787 | 34734 ft | 463 kts | 51° |
| 2026-05-04 08:12 | 57.60590 | -1.44789 | 34941 ft | 463 kts | 52° |
| 2026-05-04 08:12 | 57.62375 | -1.39760 | 35000 ft | 466 kts | 52° |
| 2026-05-04 08:13 | 57.65954 | -1.29639 | 35011 ft | 465 kts | 52° |
| 2026-05-04 08:13 | 57.69480 | -1.19619 | 35001 ft | 463 kts | 52° |
| 2026-05-04 08:14 | 57.73005 | -1.09563 | 35003 ft | 461 kts | 52° |
| 2026-05-04 08:16 | 57.87418 | -0.68032 | 35004 ft | 485 kts | 52° |
| 2026-05-04 08:16 | 57.91059 | -0.57416 | 35001 ft | 487 kts | 52° |
| 2026-05-04 08:17 | 57.94736 | -0.46646 | 34977 ft | 487 kts | 52° |
| 2026-05-04 08:17 | 57.98389 | -0.35901 | 35001 ft | 487 kts | 52° |
| 2026-05-04 08:19 | 58.12923 | 0.07324 | 34982 ft | 490 kts | 53° |
| 2026-05-04 08:20 | 58.16554 | 0.18251 | 34976 ft | 490 kts | 53° |
| 2026-05-04 08:20 | 58.20182 | 0.29218 | 34977 ft | 491 kts | 53° |
| 2026-05-04 08:21 | 58.23803 | 0.40211 | 34977 ft | 491 kts | 53° |
| 2026-05-04 08:21 | 58.27400 | 0.51184 | 34975 ft | 492 kts | 53° |
| 2026-05-04 08:22 | 58.31014 | 0.62262 | 34964 ft | 493 kts | 53° |
| 2026-05-04 08:24 | 58.45436 | 1.06989 | 34958 ft | 496 kts | 53° |
| 2026-05-04 08:24 | 58.49008 | 1.18202 | 34959 ft | 497 kts | 53° |
| 2026-05-04 08:25 | 58.52598 | 1.29524 | 34950 ft | 498 kts | 53° |
| 2026-05-04 08:25 | 58.56179 | 1.40873 | 34948 ft | 498 kts | 54° |
| 2026-05-04 08:27 | 58.70452 | 1.86654 | 34941 ft | 501 kts | 54° |
| 2026-05-04 08:28 | 58.73997 | 1.98167 | 34936 ft | 502 kts | 54° |
| 2026-05-04 08:28 | 58.77550 | 2.09760 | 34937 ft | 503 kts | 54° |
| 2026-05-04 08:29 | 58.80969 | 2.21602 | 34928 ft | 507 kts | 58° |
| 2026-05-04 08:31 | 58.93016 | 2.71042 | 34928 ft | 510 kts | 59° |
| 2026-05-04 08:33 | 59.05066 | 3.20960 | 34930 ft | 512 kts | 60° |
| 2026-05-04 08:35 | 59.16975 | 3.71497 | 34921 ft | 515 kts | 60° |
| 2026-05-04 08:35 | 59.19933 | 3.84235 | 34917 ft | 515 kts | 61° |
| 2026-05-04 08:37 | 59.30200 | 4.29041 | 34916 ft | 518 kts | 61° |
| 2026-05-04 08:38 | 59.33120 | 4.41963 | 34912 ft | 519 kts | 62° |
| 2026-05-04 08:38 | 59.36030 | 4.54915 | 34911 ft | 519 kts | 62° |
| 2026-05-04 08:40 | 59.47575 | 5.07104 | 34893 ft | 522 kts | 62° |
| 2026-05-04 08:41 | 59.50427 | 5.20202 | 34888 ft | 523 kts | 63° |
| 2026-05-04 08:41 | 59.53283 | 5.33397 | 34889 ft | 524 kts | 63° |
| 2026-05-04 08:42 | 59.56131 | 5.46640 | 34886 ft | 524 kts | 63° |
| 2026-05-04 08:42 | 59.58948 | 5.59824 | 34880 ft | 524 kts | 63° |
| 2026-05-04 08:43 | 59.61768 | 5.73108 | 34885 ft | 524 kts | 64° |
| 2026-05-04 08:43 | 59.64576 | 5.86423 | 34863 ft | 525 kts | 64° |
| 2026-05-04 08:44 | 59.67370 | 5.99754 | 34864 ft | 525 kts | 64° |
| 2026-05-04 08:46 | 59.78422 | 6.53357 | 34857 ft | 526 kts | 65° |
| 2026-05-04 08:46 | 59.81154 | 6.66830 | 34839 ft | 526 kts | 65° |
| 2026-05-04 08:47 | 59.83847 | 6.80212 | 34812 ft | 511 kts | 66° |
| 2026-05-04 08:47 | 59.86433 | 6.93144 | 34821 ft | 504 kts | 66° |
| 2026-05-04 08:48 | 59.89021 | 7.06151 | 34657 ft | 506 kts | 66° |
| 2026-05-04 08:48 | 59.90320 | 7.12707 | 34073 ft | 510 kts | 66° |
| 2026-05-04 08:48 | 59.91619 | 7.19287 | 33409 ft | 510 kts | 66° |
| 2026-05-04 08:48 | 59.92917 | 7.25892 | 32686 ft | 510 kts | 66° |
| 2026-05-04 08:49 | 59.94191 | 7.32400 | 31993 ft | 510 kts | 66° |